createdAt,value
2022-09-22T00:01:08.261Z,12.65
2022-09-22T00:03:46.167Z,11.90
2022-09-22T00:06:18.248Z,12.23
2022-09-22T00:08:48.295Z,13.27
2022-09-22T00:11:17.368Z,12.68
2022-09-22T00:13:46.069Z,13.85
2022-09-22T00:16:14.359Z,15.50
2022-09-22T00:18:40.970Z,12.90
2022-09-22T00:21:09.342Z,11.35
2022-09-22T00:23:36.786Z,10.75
2022-09-22T00:26:08.219Z,9.00
2022-09-22T00:28:34.908Z,9.00
2022-09-22T00:31:05.357Z,9.88
2022-09-22T00:33:32.251Z,8.73
2022-09-22T00:36:00.041Z,8.93
2022-09-22T00:38:26.847Z,10.13
2022-09-22T00:40:53.607Z,9.93
2022-09-22T00:43:24.960Z,10.93
2022-09-22T00:45:58.361Z,11.07
2022-09-22T00:48:25.967Z,11.63
2022-09-22T00:50:53.851Z,12.63
2022-09-22T00:53:21.178Z,29.38
2022-09-22T00:55:53.610Z,22.95
2022-09-22T00:58:25.630Z,29.65
2022-09-22T01:00:52.194Z,33.33
2022-09-22T01:03:20.924Z,29.00
2022-09-22T01:05:49.044Z,19.25
2022-09-22T01:08:16.882Z,17.85
2022-09-22T01:10:43.428Z,14.20
2022-09-22T01:13:31.164Z,12.07
2022-09-22T01:16:03.488Z,12.30
2022-09-22T01:21:21.367Z,12.15
2022-09-22T01:24:06.604Z,23.50
2022-09-22T01:26:50.122Z,23.88
2022-09-22T01:29:35.278Z,16.73
2022-09-22T01:32:07.881Z,14.13
2022-09-22T01:34:50.519Z,12.20
2022-09-22T01:37:23.376Z,12.65
2022-09-22T01:40:02.393Z,12.55
2022-09-22T01:42:39.506Z,11.30
2022-09-22T01:45:11.592Z,10.40
2022-09-22T01:47:44.047Z,10.18
2022-09-22T01:50:18.250Z,9.60
2022-09-22T01:52:44.827Z,10.35
2022-09-22T01:55:23.613Z,10.07
2022-09-22T01:58:01.032Z,10.00
2022-09-22T02:00:27.894Z,10.27
2022-09-22T02:03:01.139Z,10.02
2022-09-22T02:05:34.504Z,9.18
2022-09-22T02:08:03.362Z,8.77
2022-09-22T02:10:36.221Z,9.05
2022-09-22T02:13:02.696Z,9.13
2022-09-22T02:15:48.132Z,10.95
2022-09-22T02:18:27.847Z,9.75
2022-09-22T02:20:54.212Z,12.57
2022-09-22T02:23:20.623Z,10.88
2022-09-22T02:25:47.694Z,12.80
2022-09-22T02:28:16.415Z,12.70
2022-09-22T02:30:59.117Z,11.52
2022-09-22T02:33:38.058Z,12.77
2022-09-22T02:36:13.787Z,12.93
2022-09-22T02:38:49.520Z,13.93
2022-09-22T02:41:26.512Z,13.13
2022-09-22T02:44:03.372Z,12.60
2022-09-22T02:46:38.860Z,13.88
2022-09-22T02:49:17.352Z,12.75
2022-09-22T02:51:43.874Z,12.50
2022-09-22T02:54:10.225Z,10.70
2022-09-22T02:56:36.603Z,12.25
2022-09-22T02:59:03.040Z,11.98
2022-09-22T03:01:29.619Z,11.48
2022-09-22T03:03:56.106Z,9.20
2022-09-22T03:06:22.664Z,9.35
2022-09-22T03:08:49.082Z,10.18
2022-09-22T03:11:15.442Z,10.35
2022-09-22T03:13:41.807Z,10.77
2022-09-22T03:16:09.106Z,11.90
2022-09-22T03:18:35.514Z,21.65
2022-09-22T03:21:01.867Z,29.80
2022-09-22T03:23:28.764Z,16.63
2022-09-22T03:25:55.106Z,13.15
2022-09-22T03:28:21.606Z,11.55
2022-09-22T03:30:47.998Z,11.38
2022-09-22T03:33:14.572Z,10.40
2022-09-22T03:35:41.219Z,11.50
2022-09-22T03:38:07.588Z,10.52
2022-09-22T03:40:34.131Z,11.70
2022-09-22T03:43:00.655Z,11.30
2022-09-22T03:45:27.887Z,12.90
2022-09-22T03:47:54.561Z,17.42
2022-09-22T03:50:21.297Z,17.20
2022-09-22T03:52:47.712Z,15.82
2022-09-22T03:55:14.139Z,15.40
2022-09-22T03:57:40.831Z,13.65
2022-09-22T04:00:08.572Z,13.75
2022-09-22T04:02:35.076Z,12.15
2022-09-22T04:05:01.503Z,11.38
2022-09-22T04:07:27.850Z,10.93
2022-09-22T04:09:54.249Z,10.73
2022-09-22T04:12:20.604Z,11.48
2022-09-22T04:14:47.031Z,11.43
2022-09-22T04:17:13.618Z,12.15
2022-09-22T04:19:39.992Z,10.65
2022-09-22T04:22:06.350Z,12.32
2022-09-22T04:24:32.995Z,12.30
2022-09-22T04:27:19.194Z,11.27
2022-09-22T04:29:45.712Z,10.40
2022-09-22T04:32:12.137Z,10.82
2022-09-22T04:34:38.567Z,10.63
2022-09-22T04:37:05.022Z,10.93
2022-09-22T04:39:31.436Z,10.68
2022-09-22T04:41:57.799Z,10.70
2022-09-22T04:44:24.160Z,10.68
2022-09-22T04:46:50.605Z,9.90
2022-09-22T04:49:17.999Z,10.48
2022-09-22T04:51:44.570Z,9.70
2022-09-22T04:54:10.962Z,9.45
2022-09-22T04:56:37.324Z,11.75
2022-09-22T04:59:03.738Z,9.43
2022-09-22T05:01:30.163Z,8.77
2022-09-22T05:03:56.596Z,10.02
2022-09-22T05:06:22.953Z,10.32
2022-09-22T05:08:49.330Z,9.40
2022-09-22T05:11:15.683Z,10.25
2022-09-22T05:13:42.063Z,8.65
2022-09-22T05:16:08.618Z,8.90
2022-09-22T05:18:35.140Z,9.30
2022-09-22T05:21:01.932Z,9.13
2022-09-22T05:23:28.405Z,8.85
2022-09-22T05:25:54.844Z,9.20
2022-09-22T05:28:24.190Z,9.25
2022-09-22T05:30:51.470Z,9.15
2022-09-22T05:33:17.892Z,9.50
2022-09-22T05:35:44.347Z,8.90
2022-09-22T05:38:10.717Z,9.25
2022-09-22T05:40:37.124Z,8.10
2022-09-22T05:43:03.519Z,9.45
2022-09-22T05:45:29.971Z,8.60
2022-09-22T05:47:56.369Z,9.05
2022-09-22T05:50:23.838Z,8.52
2022-09-22T05:52:50.432Z,8.75
2022-09-22T05:55:16.871Z,9.52
2022-09-22T05:57:43.869Z,9.25
2022-09-22T06:00:11.068Z,10.02
2022-09-22T06:02:38.163Z,10.02
2022-09-22T06:05:04.783Z,10.15
2022-09-22T06:07:31.196Z,9.70
2022-09-22T06:09:57.639Z,10.60
2022-09-22T06:12:24.050Z,10.00
2022-09-22T06:14:50.432Z,9.85
2022-09-22T06:17:16.781Z,11.57
2022-09-22T06:19:43.228Z,10.88
2022-09-22T06:22:11.190Z,11.73
2022-09-22T06:24:37.920Z,12.05
2022-09-22T06:27:04.621Z,12.15
2022-09-22T06:29:31.068Z,12.32
2022-09-22T06:31:57.468Z,11.48
2022-09-22T06:34:23.885Z,12.18
2022-09-22T06:36:50.266Z,11.90
2022-09-22T06:39:16.644Z,12.73
2022-09-22T06:41:44.640Z,12.45
2022-09-22T06:44:14.242Z,12.48
2022-09-22T06:46:41.902Z,12.57
2022-09-22T06:49:08.338Z,13.20
2022-09-22T06:51:35.937Z,12.98
2022-09-22T06:54:05.122Z,12.75
2022-09-22T06:56:36.619Z,13.45
2022-09-22T06:59:10.250Z,13.13
2022-09-22T07:01:37.802Z,13.45
2022-09-22T07:04:04.620Z,12.43
2022-09-22T07:06:31.479Z,13.30
2022-09-22T07:08:57.859Z,18.20
2022-09-22T07:11:24.261Z,13.90
2022-09-22T07:13:54.451Z,13.68
2022-09-22T07:16:23.029Z,12.55
2022-09-22T07:18:54.544Z,11.57
2022-09-22T07:21:23.982Z,11.85
2022-09-22T07:23:51.925Z,10.43
2022-09-22T07:26:21.874Z,10.43
2022-09-22T07:28:51.877Z,11.18
2022-09-22T07:31:18.406Z,10.20
2022-09-22T07:33:46.142Z,9.50
2022-09-22T07:36:18.449Z,10.48
2022-09-22T07:41:14.605Z,8.55
2022-09-22T07:43:41.644Z,8.50
2022-09-22T07:46:08.475Z,9.10
2022-09-22T07:48:37.520Z,7.95
2022-09-22T07:51:06.264Z,8.70
2022-09-22T07:53:32.753Z,8.98
2022-09-22T07:56:06.259Z,8.65
2022-09-22T07:58:33.387Z,7.65
2022-09-22T08:01:06.456Z,8.10
2022-09-22T08:03:34.029Z,7.80
2022-09-22T08:06:08.050Z,7.65
2022-09-22T08:08:34.610Z,6.78
2022-09-22T08:11:14.992Z,7.13
2022-09-22T08:13:44.283Z,6.57
2022-09-22T08:16:11.778Z,6.45
2022-09-22T08:18:39.604Z,6.65
2022-09-22T08:21:06.998Z,7.25
2022-09-22T08:23:33.417Z,5.85
2022-09-22T08:26:05.387Z,5.05
2022-09-22T08:28:32.301Z,5.13
2022-09-22T08:30:59.173Z,5.05
2022-09-22T08:33:26.546Z,5.70
2022-09-22T08:35:54.406Z,3.65
2022-09-22T08:38:23.067Z,4.55
2022-09-22T08:41:18.129Z,3.05
2022-09-22T08:43:46.983Z,3.80
2022-09-22T08:46:13.770Z,3.08
2022-09-22T08:49:01.348Z,3.00
2022-09-22T08:51:52.046Z,3.42
2022-09-22T08:54:20.322Z,3.45
2022-09-22T08:57:11.295Z,3.15
2022-09-22T08:59:43.917Z,3.60
2022-09-22T09:02:33.943Z,3.50
2022-09-22T09:05:28.475Z,3.88
2022-09-22T09:08:28.441Z,4.60
2022-09-22T09:10:57.060Z,3.92
2022-09-22T09:14:14.116Z,4.22
2022-09-22T09:16:58.193Z,4.57
2022-09-22T09:19:43.826Z,3.67
2022-09-22T09:22:42.690Z,3.28
2022-09-22T09:25:27.134Z,3.53
2022-09-22T09:28:06.341Z,3.97
2022-09-22T09:30:40.470Z,3.15
2022-09-22T09:33:16.936Z,3.53
2022-09-22T09:35:50.267Z,3.38
2022-09-22T09:38:19.281Z,3.38
2022-09-22T09:40:49.428Z,3.58
2022-09-22T09:43:16.077Z,2.97
2022-09-22T09:46:04.383Z,2.97
2022-09-22T09:48:45.947Z,3.38
2022-09-22T09:51:13.579Z,3.15
2022-09-22T09:53:44.902Z,2.50
2022-09-22T09:56:31.753Z,2.93
2022-09-22T09:59:25.009Z,2.67
2022-09-22T10:01:53.865Z,3.17
2022-09-22T10:04:29.091Z,2.30
2022-09-22T10:07:12.809Z,2.47
2022-09-22T10:09:40.285Z,2.10
2022-09-22T10:12:23.786Z,2.47
2022-09-22T10:14:52.185Z,2.13
2022-09-22T10:17:21.801Z,2.05
2022-09-22T10:19:48.205Z,1.80
2022-09-22T10:22:24.254Z,1.80
2022-09-22T10:24:57.041Z,2.20
2022-09-22T10:27:25.058Z,1.98
2022-09-22T10:30:21.238Z,2.28
2022-09-22T10:33:11.487Z,1.92
2022-09-22T10:35:38.154Z,1.90
2022-09-22T10:38:19.743Z,2.20
2022-09-22T10:41:23.210Z,2.65
2022-09-22T10:43:55.893Z,1.50
2022-09-22T10:47:06.142Z,1.50
2022-09-22T10:50:04.898Z,1.45
2022-09-22T10:52:49.986Z,1.50
2022-09-22T10:55:28.299Z,1.67
2022-09-22T10:58:09.848Z,3.58
2022-09-22T11:00:39.252Z,2.60
2022-09-22T11:03:18.245Z,1.85
2022-09-22T11:06:02.824Z,1.60
2022-09-22T11:09:00.856Z,1.60
2022-09-22T11:11:48.211Z,1.70
2022-09-22T11:14:14.483Z,1.50
2022-09-22T11:17:03.952Z,1.63
2022-09-22T11:19:43.146Z,1.42
2022-09-22T11:22:23.967Z,1.35
2022-09-22T11:25:26.077Z,1.23
2022-09-22T11:28:04.454Z,1.50
2022-09-22T11:30:35.251Z,1.20
2022-09-22T11:33:24.505Z,1.00
2022-09-22T11:36:21.430Z,1.33
2022-09-22T11:39:18.805Z,1.35
2022-09-22T11:42:10.067Z,1.38
2022-09-22T11:44:40.882Z,1.20
2022-09-22T11:47:28.942Z,1.17
2022-09-22T11:50:44.858Z,0.90
2022-09-22T11:53:23.601Z,1.08
2022-09-22T11:56:15.706Z,1.23
2022-09-22T11:58:44.470Z,1.05
2022-09-22T12:01:21.867Z,1.08
2022-09-22T12:03:53.716Z,1.25
2022-09-22T12:06:26.156Z,1.02
2022-09-22T12:09:03.424Z,0.98
2022-09-22T12:11:36.002Z,0.88
2022-09-22T12:14:03.196Z,0.98
2022-09-22T12:16:50.123Z,1.55
2022-09-22T12:19:39.570Z,1.30
2022-09-22T12:22:16.779Z,1.17
2022-09-22T12:24:46.965Z,1.00
2022-09-22T12:27:22.263Z,1.00
2022-09-22T12:30:00.837Z,0.90
2022-09-22T12:32:39.250Z,1.00
2022-09-22T12:35:06.673Z,0.90
2022-09-22T12:37:36.374Z,1.05
2022-09-22T12:40:35.407Z,0.77
2022-09-22T12:43:01.858Z,1.00
2022-09-22T12:45:34.719Z,0.80
2022-09-22T12:48:09.799Z,0.73
2022-09-22T12:50:39.905Z,0.88
2022-09-22T12:53:25.900Z,0.80
2022-09-22T12:55:56.208Z,0.82
2022-09-22T12:58:23.350Z,1.17
2022-09-22T13:00:52.002Z,1.17
2022-09-22T13:03:24.823Z,0.93
2022-09-22T13:05:55.917Z,1.20
2022-09-22T13:08:31.189Z,0.80
2022-09-22T13:10:59.459Z,0.88
2022-09-22T13:13:31.925Z,1.00
2022-09-22T13:16:00.584Z,0.93
2022-09-22T13:18:29.944Z,1.00
2022-09-22T13:21:02.775Z,0.90
2022-09-22T13:23:29.515Z,0.60
2022-09-22T13:26:05.693Z,0.93
2022-09-22T13:28:32.059Z,0.68
2022-09-22T13:31:18.703Z,0.65
2022-09-22T13:33:45.113Z,1.00
2022-09-22T13:36:17.529Z,0.60
2022-09-22T13:38:51.045Z,0.57
2022-09-22T13:41:23.960Z,0.65
2022-09-22T13:43:54.789Z,0.77
2022-09-22T13:46:28.142Z,0.63
2022-09-22T13:48:55.815Z,0.60
2022-09-22T13:51:22.296Z,0.80
2022-09-22T13:53:53.916Z,0.77
2022-09-22T13:56:22.104Z,0.40
2022-09-22T13:58:50.105Z,0.50
2022-09-22T14:01:22.575Z,0.70
2022-09-22T14:03:50.441Z,0.52
2022-09-22T14:06:25.872Z,0.60
2022-09-22T14:08:53.151Z,0.50
2022-09-22T14:11:22.301Z,0.40
2022-09-22T14:13:54.851Z,0.50
2022-09-22T14:16:33.157Z,0.57
2022-09-22T14:19:17.701Z,0.40
2022-09-22T14:21:51.269Z,0.60
2022-09-22T14:24:18.069Z,0.50
2022-09-22T14:26:53.514Z,0.50
2022-09-22T14:29:32.992Z,0.50
2022-09-22T14:32:11.849Z,0.77
2022-09-22T14:34:39.507Z,0.50
2022-09-22T14:37:20.370Z,0.60
2022-09-22T14:39:47.197Z,0.40
2022-09-22T14:42:20.399Z,0.75
2022-09-22T14:44:50.357Z,0.77
2022-09-22T14:47:26.089Z,0.70
2022-09-22T14:50:27.978Z,0.80
2022-09-22T14:53:17.772Z,0.73
2022-09-22T14:55:47.296Z,0.90
2022-09-22T14:58:17.440Z,2.67
2022-09-22T15:01:18.233Z,1.40
2022-09-22T15:03:53.226Z,1.08
2022-09-22T15:06:23.126Z,1.00
2022-09-22T15:08:52.200Z,0.75
2022-09-22T15:11:18.873Z,1.30
2022-09-22T15:13:47.469Z,0.80
2022-09-22T15:16:40.346Z,0.80
2022-09-22T15:19:11.880Z,0.82
2022-09-22T15:21:40.519Z,1.13
2022-09-22T15:24:06.920Z,0.75
2022-09-22T15:26:33.436Z,0.80
2022-09-22T15:29:01.140Z,1.02
2022-09-22T15:31:28.150Z,0.70
2022-09-22T15:34:01.184Z,0.88
2022-09-22T15:36:30.520Z,0.80
2022-09-22T15:39:08.174Z,0.70
2022-09-22T15:41:34.855Z,0.95
2022-09-22T15:44:02.362Z,1.00
2022-09-22T15:46:33.841Z,1.20
2022-09-22T15:49:25.928Z,2.25
2022-09-22T15:51:52.863Z,1.75
2022-09-22T15:54:21.724Z,1.50
2022-09-22T15:56:51.236Z,1.17
2022-09-22T15:59:22.847Z,0.98
2022-09-22T16:04:15.644Z,1.48
2022-09-22T16:06:43.940Z,1.85
2022-09-22T16:09:19.068Z,2.10
2022-09-22T16:11:45.431Z,2.95
2022-09-22T16:14:12.080Z,1.60
2022-09-22T16:16:38.731Z,1.45
2022-09-22T16:19:09.389Z,1.70
2022-09-22T16:21:38.491Z,1.63
2022-09-22T16:24:08.323Z,1.27
2022-09-22T16:26:36.860Z,1.90
2022-09-22T16:29:04.344Z,2.67
2022-09-22T16:31:31.335Z,2.15
2022-09-22T16:34:00.340Z,2.00
2022-09-22T16:36:29.183Z,2.30
2022-09-22T16:38:55.688Z,2.05
2022-09-22T16:41:34.047Z,3.35
2022-09-22T16:44:01.010Z,3.50
2022-09-22T16:46:28.856Z,3.67
2022-09-22T16:49:23.170Z,4.40
2022-09-22T16:51:50.479Z,3.75
2022-09-22T16:54:18.272Z,2.50
2022-09-22T16:56:46.110Z,3.15
2022-09-22T16:59:15.877Z,3.70
2022-09-22T17:01:43.665Z,3.45
2022-09-22T17:04:12.322Z,4.45
2022-09-22T17:06:40.594Z,1.92
2022-09-22T17:09:08.271Z,1.77
2022-09-22T17:11:37.036Z,1.70
2022-09-22T17:14:11.296Z,1.60
2022-09-22T17:16:47.251Z,1.75
2022-09-22T17:19:17.054Z,1.73
2022-09-22T17:21:43.726Z,1.70
2022-09-22T17:24:10.125Z,1.38
2022-09-22T17:26:47.215Z,1.40
2022-09-22T17:29:18.863Z,1.52
2022-09-22T17:31:47.900Z,1.38
2022-09-22T17:34:14.648Z,1.73
2022-09-22T17:36:41.045Z,1.73
2022-09-22T17:39:10.141Z,1.60
2022-09-22T17:41:41.482Z,1.55
2022-09-22T17:44:10.149Z,1.60
2022-09-22T17:46:36.557Z,1.63
2022-09-22T17:49:21.477Z,1.75
2022-09-22T17:52:08.269Z,1.55
2022-09-22T17:54:57.984Z,1.40
2022-09-22T17:57:28.895Z,1.65
2022-09-22T17:59:56.396Z,1.40
2022-09-22T18:02:24.458Z,1.45
2022-09-22T18:04:51.599Z,1.48
2022-09-22T18:07:20.470Z,1.70
2022-09-22T18:09:48.368Z,1.27
2022-09-22T18:12:20.148Z,1.52
2022-09-22T18:14:48.312Z,1.50
2022-09-22T18:17:16.877Z,1.75
2022-09-22T18:19:43.792Z,1.20
2022-09-22T18:22:16.560Z,1.40
2022-09-22T18:24:45.093Z,1.50
2022-09-22T18:27:14.258Z,1.70
2022-09-22T18:29:40.758Z,2.00
2022-09-22T18:32:07.225Z,1.95
2022-09-22T18:34:33.626Z,1.90
2022-09-22T18:37:01.253Z,1.60
2022-09-22T18:39:28.709Z,1.95
2022-09-22T18:41:55.292Z,2.05
2022-09-22T18:44:22.218Z,1.70
2022-09-22T18:46:48.931Z,3.45
2022-09-22T18:49:16.381Z,2.10
2022-09-22T18:51:51.435Z,2.00
2022-09-22T18:54:19.366Z,2.25
2022-09-22T18:56:46.873Z,2.55
2022-09-22T18:59:18.652Z,2.70
2022-09-22T19:01:46.279Z,2.38
2022-09-22T19:04:17.414Z,1.67
2022-09-22T19:07:03.494Z,2.05
2022-09-22T19:09:29.933Z,2.20
2022-09-22T19:11:56.976Z,2.42
2022-09-22T19:14:24.352Z,2.35
2022-09-22T19:16:51.324Z,4.18
2022-09-22T19:19:20.322Z,3.50
2022-09-22T19:21:51.533Z,2.85
2022-09-22T19:24:18.808Z,2.10
2022-09-22T19:26:45.514Z,2.30
2022-09-22T19:29:12.410Z,2.00
2022-09-22T19:31:41.066Z,1.98
2022-09-22T19:34:09.040Z,2.15
2022-09-22T19:36:35.949Z,2.40
2022-09-22T19:39:02.332Z,1.95
2022-09-22T19:41:28.757Z,2.33
2022-09-22T19:43:55.680Z,2.38
2022-09-22T19:46:23.168Z,1.98
2022-09-22T19:48:49.959Z,2.40
2022-09-22T19:51:16.416Z,2.28
2022-09-22T19:53:42.779Z,2.40
2022-09-22T19:56:09.248Z,2.50
2022-09-22T19:58:36.067Z,2.70
2022-09-22T20:01:02.416Z,3.45
2022-09-22T20:03:28.855Z,2.63
2022-09-22T20:05:55.209Z,2.20
2022-09-22T20:08:22.554Z,2.67
2022-09-22T20:11:06.169Z,2.60
2022-09-22T20:13:59.791Z,2.60
2022-09-22T20:16:28.085Z,2.72
2022-09-22T20:18:54.983Z,2.55
2022-09-22T20:21:21.466Z,2.90
2022-09-22T20:23:47.838Z,3.58
2022-09-22T20:26:14.286Z,3.53
2022-09-22T20:28:41.405Z,2.85
2022-09-22T20:31:11.924Z,3.30
2022-09-22T20:33:38.880Z,3.55
2022-09-22T20:36:05.960Z,3.67
2022-09-22T20:38:33.727Z,4.35
2022-09-22T20:41:01.096Z,3.28
2022-09-22T20:43:28.775Z,3.60
2022-09-22T20:46:04.303Z,3.63
2022-09-22T20:48:30.780Z,3.83
2022-09-22T20:50:58.001Z,4.03
2022-09-22T20:53:24.627Z,5.03
2022-09-22T20:56:17.522Z,4.63
2022-09-22T20:58:45.565Z,4.28
2022-09-22T21:01:14.111Z,5.10
2022-09-22T21:03:40.590Z,4.88
2022-09-22T21:06:09.568Z,5.53
2022-09-22T21:08:59.175Z,5.60
2022-09-22T21:11:26.408Z,5.13
2022-09-22T21:13:58.689Z,6.07
2022-09-22T21:18:51.744Z,5.65
2022-09-22T21:21:19.655Z,6.22
2022-09-22T21:23:48.267Z,5.60
2022-09-22T21:26:15.929Z,5.38
2022-09-22T21:28:42.897Z,5.28
2022-09-22T21:31:10.493Z,5.00
2022-09-22T21:33:37.686Z,6.32
2022-09-22T21:36:13.628Z,5.55
2022-09-22T21:38:44.527Z,5.88
2022-09-22T21:41:14.161Z,5.60
2022-09-22T21:43:40.704Z,5.70
2022-09-22T21:46:12.374Z,6.18
2022-09-22T21:48:38.870Z,6.07
2022-09-22T21:51:07.938Z,6.05
2022-09-22T21:53:35.455Z,6.03
2022-09-22T21:56:07.262Z,6.28
2022-09-22T21:58:36.203Z,7.00
2022-09-22T22:01:14.451Z,8.20
2022-09-22T22:03:42.419Z,8.00
2022-09-22T22:06:15.862Z,9.02
2022-09-22T22:08:55.440Z,10.60
2022-09-22T22:11:24.326Z,13.07
2022-09-22T22:13:52.978Z,25.90
2022-09-22T22:16:21.512Z,21.63
2022-09-22T22:18:48.376Z,13.10
2022-09-22T22:21:18.129Z,8.43
2022-09-22T22:23:49.248Z,6.30
2022-09-22T22:26:19.881Z,5.82
2022-09-22T22:28:47.638Z,6.63
2022-09-22T22:31:16.239Z,7.10
2022-09-22T22:33:43.367Z,6.90
2022-09-22T22:36:12.843Z,7.07
2022-09-22T22:38:40.101Z,6.57
2022-09-22T22:41:06.409Z,6.80
2022-09-22T22:43:33.099Z,6.65
2022-09-22T22:45:59.766Z,6.25
2022-09-22T22:48:26.732Z,7.07
2022-09-22T22:50:53.912Z,6.93
2022-09-22T22:53:21.085Z,6.75
2022-09-22T22:55:59.546Z,7.28
2022-09-22T22:58:28.567Z,6.60
2022-09-22T23:01:12.663Z,7.43
2022-09-22T23:03:41.311Z,7.82
2022-09-22T23:06:19.443Z,7.72
2022-09-22T23:08:46.240Z,7.32
2022-09-22T23:11:24.503Z,7.75
2022-09-22T23:13:53.360Z,8.38
2022-09-22T23:16:23.574Z,8.50
2022-09-22T23:18:51.093Z,7.78
2022-09-22T23:21:19.521Z,8.20
2022-09-22T23:23:48.025Z,7.72
2022-09-22T23:26:15.619Z,7.32
2022-09-22T23:28:42.742Z,7.25
2022-09-22T23:31:14.674Z,7.65
2022-09-22T23:33:44.140Z,8.55
2022-09-22T23:36:13.280Z,9.40
2022-09-22T23:38:39.645Z,13.43
2022-09-22T23:41:06.142Z,15.32
2022-09-22T23:43:33.194Z,15.52
2022-09-22T23:46:00.021Z,14.63
2022-09-22T23:48:29.191Z,11.15
2022-09-22T23:50:55.575Z,7.90
2022-09-22T23:53:24.219Z,9.70
2022-09-22T23:55:51.164Z,9.85
2022-09-22T23:58:18.756Z,8.98
